메인 페이지
METAR-TAF:

METAR-TAF

공항 :

덴버 국제공항

덴버, 콜로라도, 미국

위도: 39-49-58N, 경도: 104-39-27W, 고도: 1655m

현재 날씨관측

예보는 35분 전, 21:53시(UTC)에 발표되었습니다.
10kt
온도 11°C
습도 40%
기압 1014 hPa
시정: 16.1km
고도 8000ft 상공 구름 조금
고도 14000ft 상공 구름 조금
고도 22000ft 상공 구름 많음

METAR: KDEN 202153Z 10010KT 10SM FEW080 FEW140 BKN220 11/M02 A2994 RMK AO2 SLP119 ACSL DSNT NW-N T01061022

시각: 15:28 (22:28 UTC)

예보

예보는 1 시간 22분 전, 21:06시(UTC)에 발표되었습니다.
예보 대상 시간: 20일 21시부터 21일 24시까지 (UTC)
11kt
시정: 10km
고도 8000ft 상공 구름 조금
고도 14000ft 상공 구름 조금
고도 22000ft 상공 구름 많음
21일 0200시부터 (UTC)
7kt
시정: 10km
고도 12000ft 상공 구름 보통
고도 22000ft 상공 구름 많음
21일 0600시부터 (UTC)
남남서12kt
시정: 10km
고도 12000ft 상공 구름 보통
고도 22000ft 상공 흐림
21일 1800시부터 (UTC)
서남서14kt, 순간 최대 풍속 21kt
시정: 10km
고도 10000ft 상공 구름 보통
고도 18000ft 상공 흐림
21일 2300시부터 (UTC)
12kt
시정: 10km
고도 8000ft 상공 구름 보통
고도 15000ft 상공 흐림

TAF: KDEN 202106Z 2021/2124 10011KT P6SM FEW080 FEW140 BKN220 FM210200 18007KT P6SM SCT120 BKN220 FM210600 21012KT P6SM SCT120 OVC220 FM211800 24014G21KT P6SM SCT100 OVC180 FM212300 28012KT P6SM SCT080 OVC150

4,000개 이상의 공항 관측 자료 및 예보 (METAR 및 TAF 보고).

지도상에서 검색 가능한 기상관측소가 노란 점과 빨간 점으로 표시되어 있습니다.

기상관측소 명을 보려면 표시 위로 마우스를 이동하세요.

날씨 관측과 예보를 보려면 클릭하세요.

지도 변경 : 확대하려면 엑스 표시가 있는 녹색 버튼, 축소하려면 빼기 표시가 있는 녹색 버튼, 다음 페이지의 지도를 보려면 녹색 화살표를 클릭하세요.


METAR-TAF: